Bouzas — EAPC — position and weather

sailwx.info

Track history (hours):
 
Tides and Currents Weather Stations Pressure Air Temp Water Temp Dewpoint Dewpoint Depression Visibility Wind Speed Wind Dir Waves Ship Positions

Bouzas

Last reported at 2016-Aug-25 00:33 UTC. Time now 2016-Aug-25 04:26 UTC.
Position N 46°35' W 003°36'.

Length 142 m; draft 5.9 m.

Type: Cargo ship. MMSI: 224029000.

Date/timePositionNaut miles runAvg speedWind from/ knotsBaromVisibWave heightAir tempDewpointWater temp
2016-Aug-25 00:33N 46°35' W 003°36'1818.2
2016-Aug-24 23:33N 46°45' W 003°14'1918.7
2016-Aug-24 22:32N 46°55' W 002°50'1617.0
2016-Aug-24 21:33N 47°04' W 002°30'1616.1
2016-Aug-24 20:34N 47°15' W 002°13'3 3.1
2016-Aug-24 19:33N 47°17' W 002°10'0 0.0
2016-Aug-24 18:33N 47°17' W 002°10'0 0.0
2016-Aug-24 17:30N 47°17' W 002°10'0 0.0
2016-Aug-24 16:30N 47°17' W 002°10'0 0.0
2016-Aug-24 15:33N 47°17' W 002°10'0 0.0
2016-Aug-24 14:30N 47°17' W 002°10'0 0.0
2016-Aug-24 13:30N 47°17' W 002°10'0 0.0
2016-Aug-24 12:33N 47°17' W 002°10'0 0.0
2016-Aug-24 11:30N 47°17' W 002°10'0 0.0
2016-Aug-24 10:33N 47°17' W 002°10'0 0.0
2016-Aug-24 09:33N 47°17' W 002°10'0 0.0
2016-Aug-24 08:32N 47°17' W 002°10'0 0.0
2016-Aug-24 07:33N 47°17' W 002°10'0 0.0
2016-Aug-24 06:32N 47°17' W 002°10'0 0.0
2016-Aug-24 04:32N 47°17' W 002°10'0 0.0
2016-Aug-24 03:32N 47°17' W 002°10'0 0.0
2016-Aug-24 02:32N 47°17' W 002°10'0 0.0
2016-Aug-24 01:32N 47°17' W 002°10'0 0.0
2016-Aug-24 00:32N 47°17' W 002°10'0 0.0
2016-Aug-23 23:32N 47°17' W 002°10'0 0.0
2016-Aug-23 22:27N 47°17' W 002°10'0 0.0
2016-Aug-23 21:32N 47°17' W 002°10'0 0.0
2016-Aug-23 20:32N 47°17' W 002°10'1 1.2
2016-Aug-23 19:34N 47°17' W 002°11'1616.0
2016-Aug-23 18:33N 47°05' W 002°26'1818.3
2016-Aug-23 17:34N 46°55' W 002°49'1818.2
2016-Aug-23 16:33N 46°44' W 003°11'2418.4
2016-Aug-23 15:16N 46°30' W 003°38'1317.8
2016-Aug-23 14:33N 46°22' W 003°53'3717.9
2016-Aug-23 12:29N 46°00' W 004°36'9117.6
2016-Aug-23 07:18N 45°06' W 006°21'1418.0
2016-Aug-23 06:32N 44°58' W 006°37'1717.6
2016-Aug-23 05:33N 44°47' W 006°56'16816.3
2016-Aug-22 19:17N 42°49' W 009°40'372 7.2
2016-Aug-20 15:33N 46°50' W 003°01'1515.4
2016-Aug-20 14:34N 46°59' W 002°43'1514.5
2016-Aug-20 13:34N 47°06' W 002°24'1413.6
2016-Aug-20 12:33N 47°16' W 002°11'1 1.3
2016-Aug-20 11:32N 47°17' W 002°10'0 0.0
2016-Aug-20 10:32N 47°17' W 002°10'0 0.0
2016-Aug-20 09:32N 47°17' W 002°10'0 0.0
2016-Aug-20 08:32N 47°17' W 002°10'0 0.0
2016-Aug-20 07:32N 47°17' W 002°10'0 0.0
2016-Aug-20 06:32N 47°17' W 002°10'0 0.0
2016-Aug-20 05:26N 47°17' W 002°10'0 0.0
2016-Aug-20 04:26N 47°17' W 002°10'0 0.0
2016-Aug-20 03:32N 47°17' W 002°10'0 0.0
2016-Aug-20 02:32N 47°17' W 002°10'0 0.0
2016-Aug-20 01:32N 47°17' W 002°10'0 0.0
2016-Aug-20 00:32N 47°17' W 002°10'0 0.0
2016-Aug-19 23:29N 47°17' W 002°10'0 0.0
2016-Aug-19 22:32N 47°17' W 002°10'0 0.0
2016-Aug-19 21:32N 47°17' W 002°10'0 0.0
2016-Aug-19 20:32N 47°17' W 002°10'0 0.0
2016-Aug-19 19:29N 47°17' W 002°10'0 0.0
2016-Aug-19 18:32N 47°17' W 002°10'0 0.0
2016-Aug-19 17:31N 47°17' W 002°10'0 0.0
2016-Aug-19 16:31N 47°17' W 002°10'0 0.0
2016-Aug-19 15:31N 47°17' W 002°10'0 0.0
2016-Aug-19 14:31N 47°17' W 002°10'0 0.0
2016-Aug-19 13:25N 47°17' W 002°10'0 0.0
2016-Aug-19 12:16N 47°17' W 002°10'0 0.0
2016-Aug-19 11:31N 47°17' W 002°10'0 0.0
2016-Aug-19 10:22N 47°17' W 002°10'0 0.0
2016-Aug-19 09:16N 47°17' W 002°10'0 0.0
2016-Aug-19 08:28N 47°17' W 002°10'0 0.0
2016-Aug-19 07:25N 47°17' W 002°10'0 0.0
2016-Aug-19 06:31N 47°17' W 002°10'0 0.0
2016-Aug-19 05:31N 47°17' W 002°10'0 0.0
2016-Aug-19 04:31N 47°17' W 002°10'0 0.0
2016-Aug-19 03:31N 47°17' W 002°10'0 0.0
2016-Aug-19 02:28N 47°17' W 002°10'0 0.0
2016-Aug-19 01:31N 47°17' W 002°10'0 0.0
2016-Aug-19 00:31N 47°17' W 002°10'0 0.0
2016-Aug-18 23:31N 47°17' W 002°10'0 0.0
2016-Aug-18 22:31N 47°17' W 002°10'2 2.3
2016-Aug-18 21:33N 47°16' W 002°12'1313.4
2016-Aug-18 20:34N 47°06' W 002°25'1716.9
2016-Aug-18 19:33N 46°57' W 002°46'2116.6
2016-Aug-18 18:16N 46°44' W 003°11'  
Track history (hours):
 
Tides and Currents Weather Stations Pressure Air Temp Water Temp Dewpoint Dewpoint Depression Visibility Wind Speed Wind Dir Waves Ship Positions

Bouzas

Last reported at 2016-Aug-25 00:33 UTC. Time now 2016-Aug-25 04:26 UTC.
Position N 46°35' W 003°36'.

Length 142 m; draft 5.9 m.

Type: Cargo ship. MMSI: 224029000.

Date/timePositionNaut miles runAvg speedWind from/ knotsBaromVisibWave heightAir tempDewpointWater temp
2016-Aug-25 00:33N 46°35' W 003°36'1818.2
2016-Aug-24 23:33N 46°45' W 003°14'1918.7
2016-Aug-24 22:32N 46°55' W 002°50'1617.0
2016-Aug-24 21:33N 47°04' W 002°30'1616.1
2016-Aug-24 20:34N 47°15' W 002°13'3 3.1
2016-Aug-24 19:33N 47°17' W 002°10'0 0.0
2016-Aug-24 18:33N 47°17' W 002°10'0 0.0
2016-Aug-24 17:30N 47°17' W 002°10'0 0.0
2016-Aug-24 16:30N 47°17' W 002°10'0 0.0
2016-Aug-24 15:33N 47°17' W 002°10'0 0.0
2016-Aug-24 14:30N 47°17' W 002°10'0 0.0
2016-Aug-24 13:30N 47°17' W 002°10'0 0.0
2016-Aug-24 12:33N 47°17' W 002°10'0 0.0
2016-Aug-24 11:30N 47°17' W 002°10'0 0.0
2016-Aug-24 10:33N 47°17' W 002°10'0 0.0
2016-Aug-24 09:33N 47°17' W 002°10'0 0.0
2016-Aug-24 08:32N 47°17' W 002°10'0 0.0
2016-Aug-24 07:33N 47°17' W 002°10'0 0.0
2016-Aug-24 06:32N 47°17' W 002°10'0 0.0
2016-Aug-24 04:32N 47°17' W 002°10'0 0.0
2016-Aug-24 03:32N 47°17' W 002°10'0 0.0
2016-Aug-24 02:32N 47°17' W 002°10'0 0.0
2016-Aug-24 01:32N 47°17' W 002°10'0 0.0
2016-Aug-24 00:32N 47°17' W 002°10'0 0.0
2016-Aug-23 23:32N 47°17' W 002°10'0 0.0
2016-Aug-23 22:27N 47°17' W 002°10'0 0.0
2016-Aug-23 21:32N 47°17' W 002°10'0 0.0
2016-Aug-23 20:32N 47°17' W 002°10'1 1.2
2016-Aug-23 19:34N 47°17' W 002°11'1616.0
2016-Aug-23 18:33N 47°05' W 002°26'1818.3
2016-Aug-23 17:34N 46°55' W 002°49'1818.2
2016-Aug-23 16:33N 46°44' W 003°11'2418.4
2016-Aug-23 15:16N 46°30' W 003°38'1317.8
2016-Aug-23 14:33N 46°22' W 003°53'3717.9
2016-Aug-23 12:29N 46°00' W 004°36'9117.6
2016-Aug-23 07:18N 45°06' W 006°21'1418.0
2016-Aug-23 06:32N 44°58' W 006°37'1717.6
2016-Aug-23 05:33N 44°47' W 006°56'16816.3
2016-Aug-22 19:17N 42°49' W 009°40'372 7.2
2016-Aug-20 15:33N 46°50' W 003°01'1515.4
2016-Aug-20 14:34N 46°59' W 002°43'1514.5
2016-Aug-20 13:34N 47°06' W 002°24'1413.6
2016-Aug-20 12:33N 47°16' W 002°11'1 1.3
2016-Aug-20 11:32N 47°17' W 002°10'0 0.0
2016-Aug-20 10:32N 47°17' W 002°10'0 0.0
2016-Aug-20 09:32N 47°17' W 002°10'0 0.0
2016-Aug-20 08:32N 47°17' W 002°10'0 0.0
2016-Aug-20 07:32N 47°17' W 002°10'0 0.0
2016-Aug-20 06:32N 47°17' W 002°10'0 0.0
2016-Aug-20 05:26N 47°17' W 002°10'0 0.0
2016-Aug-20 04:26N 47°17' W 002°10'0 0.0
2016-Aug-20 03:32N 47°17' W 002°10'0 0.0
2016-Aug-20 02:32N 47°17' W 002°10'0 0.0
2016-Aug-20 01:32N 47°17' W 002°10'0 0.0
2016-Aug-20 00:32N 47°17' W 002°10'0 0.0
2016-Aug-19 23:29N 47°17' W 002°10'0 0.0
2016-Aug-19 22:32N 47°17' W 002°10'0 0.0
2016-Aug-19 21:32N 47°17' W 002°10'0 0.0
2016-Aug-19 20:32N 47°17' W 002°10'0 0.0
2016-Aug-19 19:29N 47°17' W 002°10'0 0.0
2016-Aug-19 18:32N 47°17' W 002°10'0 0.0
2016-Aug-19 17:31N 47°17' W 002°10'0 0.0
2016-Aug-19 16:31N 47°17' W 002°10'0 0.0
2016-Aug-19 15:31N 47°17' W 002°10'0 0.0
2016-Aug-19 14:31N 47°17' W 002°10'0 0.0
2016-Aug-19 13:25N 47°17' W 002°10'0 0.0
2016-Aug-19 12:16N 47°17' W 002°10'0 0.0
2016-Aug-19 11:31N 47°17' W 002°10'0 0.0
2016-Aug-19 10:22N 47°17' W 002°10'0 0.0
2016-Aug-19 09:16N 47°17' W 002°10'0 0.0
2016-Aug-19 08:28N 47°17' W 002°10'0 0.0
2016-Aug-19 07:25N 47°17' W 002°10'0 0.0
2016-Aug-19 06:31N 47°17' W 002°10'0 0.0
2016-Aug-19 05:31N 47°17' W 002°10'0 0.0
2016-Aug-19 04:31N 47°17' W 002°10'0 0.0
2016-Aug-19 03:31N 47°17' W 002°10'0 0.0
2016-Aug-19 02:28N 47°17' W 002°10'0 0.0
2016-Aug-19 01:31N 47°17' W 002°10'0 0.0
2016-Aug-19 00:31N 47°17' W 002°10'0 0.0
2016-Aug-18 23:31N 47°17' W 002°10'0 0.0
2016-Aug-18 22:31N 47°17' W 002°10'2 2.3
2016-Aug-18 21:33N 47°16' W 002°12'1313.4
2016-Aug-18 20:34N 47°06' W 002°25'1716.9
2016-Aug-18 19:33N 46°57' W 002°46'2116.6
2016-Aug-18 18:16N 46°44' W 003°11'  

Dump ship's entire track history